Time;durP1;ratioP1;P1;durP2;ratioP2;P2;SDS_P1;SDS_P2;PMS_P1;PMS_P2;Temp;Humidity;BMP_temperature;BMP_pressure;BME280_temperature;BME280_humidity;BME280_pressure;Samples;Min_cycle;Max_cycle;Signal;HPM_P1;HPM_P2
2021/06/21 00:00:53;;;;;;;21.75;7.22;;;;;;;22.30;100.00;96816.63;5018369;28;20046;-85
2021/06/21 00:03:20;;;;;;;28.80;7.38;;;;;;;22.19;100.00;96829.75;4984820;28;20116;-87
2021/06/21 00:05:47;;;;;;;24.63;7.78;;;;;;;22.23;100.00;96858.84;4984636;28;20046;-84
2021/06/21 00:08:19;;;;;;;21.85;7.40;;;;;;;22.25;100.00;96867.50;4983876;28;20313;-85
2021/06/21 00:10:45;;;;;;;28.85;7.63;;;;;;;22.35;100.00;96916.25;4983045;28;20512;-84
2021/06/21 00:13:12;;;;;;;28.00;7.90;;;;;;;22.66;100.00;96930.16;5006649;28;20046;-84
2021/06/21 00:15:39;;;;;;;33.33;8.45;;;;;;;22.98;100.00;96913.22;4993669;28;20109;-84
2021/06/21 00:18:07;;;;;;;25.33;8.32;;;;;;;23.09;100.00;96941.47;5011437;28;20045;-86
2021/06/21 00:20:36;;;;;;;26.42;7.57;;;;;;;22.51;100.00;96953.53;5021164;28;20044;-84
2021/06/21 00:23:03;;;;;;;32.33;6.65;;;;;;;21.46;100.00;97022.78;5031008;28;20045;-86
2021/06/21 00:25:30;;;;;;;16.67;4.95;;;;;;;20.57;100.00;97017.91;4996347;28;20061;-84
2021/06/21 00:27:57;;;;;;;21.10;4.60;;;;;;;20.04;100.00;97029.66;4997195;28;20046;-83
2021/06/21 00:30:24;;;;;;;15.73;4.68;;;;;;;19.66;100.00;97044.13;5029022;28;20390;-85
2021/06/21 00:32:51;;;;;;;19.58;5.05;;;;;;;19.36;100.00;97054.56;5020126;28;20053;-82
2021/06/21 00:35:20;;;;;;;16.55;4.68;;;;;;;19.19;100.00;97047.81;5003315;28;20424;-82
2021/06/21 00:37:47;;;;;;;22.90;5.03;;;;;;;19.04;100.00;97071.66;5014311;28;20100;-81
2021/06/21 00:40:15;;;;;;;21.55;4.80;;;;;;;18.93;100.00;97073.56;5008998;28;20073;-83
2021/06/21 00:42:45;;;;;;;16.90;4.88;;;;;;;18.86;100.00;97089.19;5015532;28;20105;-82
2021/06/21 00:45:13;;;;;;;17.58;4.15;;;;;;;18.83;100.00;97090.72;5047994;28;20049;-85
2021/06/21 00:47:40;;;;;;;15.65;3.40;;;;;;;18.68;100.00;97056.91;5017156;28;20050;-83
2021/06/21 00:50:11;;;;;;;9.88;2.72;;;;;;;18.70;100.00;97058.50;5017496;28;20140;-83
2021/06/21 00:52:37;;;;;;;15.45;2.70;;;;;;;18.57;100.00;97047.84;5019633;28;20045;-83
2021/06/21 00:55:06;;;;;;;11.13;2.97;;;;;;;18.60;100.00;97040.81;5004380;28;20059;-83
2021/06/21 00:57:35;;;;;;;15.70;2.95;;;;;;;18.58;100.00;97049.41;5039067;28;20046;-81
2021/06/21 01:00:13;;;;;;;13.52;2.67;;;;;;;18.56;100.00;97045.47;5040510;28;20508;-84
2021/06/21 01:02:40;;;;;;;13.95;2.70;;;;;;;18.57;100.00;97012.22;5024880;28;20049;-85
2021/06/21 01:05:09;;;;;;;12.98;2.90;;;;;;;18.57;100.00;97014.16;5023020;28;20049;-85
2021/06/21 01:07:38;;;;;;;11.70;2.90;;;;;;;18.53;100.00;96983.97;5008588;28;20054;-85
2021/06/21 01:10:07;;;;;;;9.65;2.80;;;;;;;18.55;100.00;97002.78;5007420;28;20473;-84
2021/06/21 01:12:46;;;;;;;10.85;2.40;;;;;;;18.51;100.00;96989.06;5024482;28;20053;-84
2021/06/21 01:15:37;;;;;;;14.95;3.25;;;;;;;18.47;100.00;96981.97;5024359;28;20045;-84
2021/06/21 01:18:14;;;;;;;17.85;3.45;;;;;;;18.50;100.00;96994.94;5023201;28;20042;-84
2021/06/21 01:20:54;;;;;;;10.18;2.72;;;;;;;18.52;100.00;97028.22;5024905;28;20095;-85
2021/06/21 01:24:00;;;;;;;14.35;2.33;;;;;;;18.50;100.00;97034.09;5015930;28;20049;-85
2021/06/21 01:26:36;;;;;;;9.77;2.57;;;;;;;18.43;100.00;97008.53;5022218;28;20067;-86
2021/06/21 01:29:41;;;;;;;10.57;2.60;;;;;;;18.47;100.00;97039.56;5020330;28;20101;-84
2021/06/21 01:32:16;;;;;;;11.98;2.97;;;;;;;18.48;100.00;97022.72;5012297;28;20053;-85
2021/06/21 01:35:02;;;;;;;17.88;3.30;;;;;;;18.50;100.00;96998.47;5008079;28;20065;-85
2021/06/21 01:37:32;;;;;;;14.55;3.40;;;;;;;18.47;100.00;96988.25;5023643;28;20073;-85
2021/06/21 01:40:00;;;;;;;10.52;3.45;;;;;;;18.46;100.00;97010.53;5022379;28;20072;-85
2021/06/21 01:42:31;;;;;;;13.13;3.25;;;;;;;18.44;100.00;96991.72;5022269;28;20115;-85
2021/06/21 01:45:07;;;;;;;18.83;3.22;;;;;;;18.41;100.00;97005.41;5022039;28;20042;-85
2021/06/21 01:47:34;;;;;;;21.70;4.35;;;;;;;18.41;100.00;96991.69;5005442;28;20045;-86
2021/06/21 01:50:03;;;;;;;18.80;3.90;;;;;;;18.39;100.00;96961.94;5044179;28;20048;-87
2021/06/21 01:52:33;;;;;;;12.65;3.30;;;;;;;18.33;100.00;96943.47;5010351;28;20389;-86
2021/06/21 01:55:02;;;;;;;20.48;3.88;;;;;;;18.25;100.00;96945.38;5008915;28;20049;-85
2021/06/21 01:57:31;;;;;;;11.45;3.75;;;;;;;18.19;100.00;96925.00;5020798;28;20072;-85
2021/06/21 02:00:05;;;;;;;22.10;4.13;;;;;;;18.24;100.00;96932.88;5005265;28;20050;-84
2021/06/21 02:02:34;;;;;;;16.60;4.00;;;;;;;18.22;100.00;96921.50;5036485;28;20033;-86
2021/06/21 02:05:01;;;;;;;17.88;4.05;;;;;;;18.11;100.00;96906.16;5017301;28;20045;-85
2021/06/21 02:07:29;;;;;;;15.60;4.18;;;;;;;18.16;100.00;96908.53;5039723;28;20045;-84
2021/06/21 02:09:56;;;;;;;16.05;4.10;;;;;;;18.16;100.00;96895.63;5019530;28;20049;-85
2021/06/21 02:12:25;;;;;;;23.30;4.70;;;;;;;18.21;100.00;96889.00;5017417;28;20045;-85
2021/06/21 02:14:53;;;;;;;17.48;4.07;;;;;;;18.21;100.00;96881.56;5034350;28;20045;-84
2021/06/21 02:17:22;;;;;;;22.25;4.43;;;;;;;18.25;100.00;96867.88;5016631;28;20055;-84
2021/06/21 02:19:51;;;;;;;17.10;4.28;;;;;;;18.17;100.00;96849.84;5016219;28;20057;-84
2021/06/21 02:22:22;;;;;;;22.77;4.60;;;;;;;18.22;100.00;96854.97;5015976;28;20107;-84
2021/06/21 02:24:52;;;;;;;18.90;4.50;;;;;;;18.26;100.00;96840.13;5015676;28;20120;-84
2021/06/21 02:27:27;;;;;;;21.05;4.20;;;;;;;18.26;100.00;96853.81;5016810;28;20389;-84
2021/06/21 02:29:56;;;;;;;17.55;4.20;;;;;;;18.25;100.00;96879.63;5023368;28;20116;-86
2021/06/21 02:32:23;;;;;;;21.55;4.43;;;;;;;18.22;100.00;96893.31;5002296;28;20122;-85
2021/06/21 02:34:53;;;;;;;27.05;4.70;;;;;;;18.22;100.00;96877.66;4999861;28;20052;-83
2021/06/21 02:37:21;;;;;;;23.50;4.72;;;;;;;18.25;100.00;96887.84;5034159;28;20041;-84
2021/06/21 02:39:48;;;;;;;21.40;4.68;;;;;;;18.24;100.00;96890.97;5002906;28;20055;-84
2021/06/21 02:42:14;;;;;;;19.13;4.25;;;;;;;18.23;100.00;96856.53;5026437;28;20037;-84
2021/06/21 02:44:41;;;;;;;14.02;4.28;;;;;;;18.26;100.00;96848.34;5016263;28;20052;-82
2021/06/21 02:47:08;;;;;;;23.63;4.78;;;;;;;18.27;100.00;96824.47;5006336;28;20104;-85
2021/06/21 02:49:35;;;;;;;18.92;5.03;;;;;;;18.19;100.00;96818.16;5002782;28;20053;-85
2021/06/21 02:52:19;;;;;;;20.23;4.50;;;;;;;18.26;100.00;96853.03;4999198;28;20109;-83
2021/06/21 02:55:08;;;;;;;19.08;4.65;;;;;;;18.21;100.00;96867.09;5000258;28;20061;-83
2021/06/21 02:57:52;;;;;;;21.67;4.78;;;;;;;18.27;100.00;96871.03;5016822;28;20052;-82
2021/06/21 03:00:19;;;;;;;14.80;4.97;;;;;;;18.27;100.00;96877.28;5022787;28;20532;-85
2021/06/21 03:02:46;;;;;;;18.05;5.28;;;;;;;18.31;100.00;96866.34;5014395;28;20107;-84
2021/06/21 03:05:16;;;;;;;22.48;4.80;;;;;;;18.27;100.00;96869.06;5013922;28;20096;-82
2021/06/21 03:07:48;;;;;;;14.82;5.20;;;;;;;18.29;100.00;96872.22;5006516;28;20065;-84
2021/06/21 03:10:16;;;;;;;19.42;5.95;;;;;;;18.31;100.00;96877.31;4998313;28;20041;-85
2021/06/21 03:12:47;;;;;;;26.00;5.28;;;;;;;18.31;100.00;96856.19;4994707;28;20408;-83
2021/06/21 03:15:19;;;;;;;17.98;5.68;;;;;;;18.36;100.00;96861.28;4978337;28;20473;-84
2021/06/21 03:17:50;;;;;;;21.52;5.68;;;;;;;18.34;100.00;96863.66;5005392;28;20041;-82
2021/06/21 03:20:19;;;;;;;17.27;5.63;;;;;;;18.35;100.00;96873.41;5026939;23;20053;-82
2021/06/21 03:22:47;;;;;;;17.88;5.90;;;;;;;18.38;100.00;96872.66;5016097;28;20457;-83
2021/06/21 03:25:14;;;;;;;18.48;5.70;;;;;;;18.39;100.00;96876.97;5016386;28;20380;-82
2021/06/21 03:27:41;;;;;;;14.05;5.47;;;;;;;18.38;100.00;96858.16;5017691;28;20049;-82
2021/06/21 03:30:13;;;;;;;14.75;6.10;;;;;;;18.42;100.00;96865.25;5017980;28;20104;-80
2021/06/21 03:32:42;;;;;;;17.00;5.93;;;;;;;18.45;100.00;96858.22;5024534;28;20049;-79
2021/06/21 03:35:11;;;;;;;18.30;6.43;;;;;;;18.37;100.00;96854.66;5020985;28;20103;-80
2021/06/21 03:37:38;;;;;;;18.92;7.05;;;;;;;18.37;100.00;96857.41;5016454;28;20050;-82
2021/06/21 03:40:08;;;;;;;22.08;7.75;;;;;;;18.37;100.00;96865.63;5008316;28;20596;-82
2021/06/21 03:42:34;;;;;;;24.27;8.23;;;;;;;18.32;100.00;96865.19;4995662;28;20457;-80
2021/06/21 03:45:01;;;;;;;21.45;7.70;;;;;;;18.32;100.00;96857.78;4996288;28;20076;-82
2021/06/21 03:47:30;;;;;;;23.15;7.75;;;;;;;18.32;100.00;96849.56;4996321;28;20561;-83
2021/06/21 03:49:57;;;;;;;17.73;7.05;;;;;;;18.33;100.00;96839.34;4996211;28;20105;-82
2021/06/21 03:52:23;;;;;;;24.27;8.02;;;;;;;18.37;100.00;96846.44;4995351;28;20073;-80
2021/06/21 03:55:05;;;;;;;17.35;7.53;;;;;;;18.42;100.00;96842.53;4995626;28;20046;-82
2021/06/21 03:57:40;;;;;;;17.20;7.57;;;;;;;18.41;100.00;96839.00;4994523;28;20490;-81
2021/06/21 04:00:13;;;;;;;24.38;8.05;;;;;;;18.41;100.00;96838.22;4995068;28;20050;-81
2021/06/21 04:02:40;;;;;;;22.73;7.72;;;;;;;18.49;100.00;96837.09;4996071;28;20038;-85
2021/06/21 04:05:07;;;;;;;17.75;7.95;;;;;;;18.50;100.00;96827.72;4995052;28;20049;-80
2021/06/21 04:07:34;;;;;;;21.05;7.63;;;;;;;18.42;100.00;96839.78;4994588;28;20108;-78
2021/06/21 04:10:03;;;;;;;25.58;7.90;;;;;;;18.42;100.00;96820.59;5000380;28;20072;-82
2021/06/21 04:12:34;;;;;;;23.95;8.68;;;;;;;18.40;100.00;96829.19;4993651;28;20438;-81
2021/06/21 04:15:01;;;;;;;20.17;7.72;;;;;;;18.37;100.00;96808.06;4994389;28;20049;-82
2021/06/21 04:17:30;;;;;;;22.75;8.57;;;;;;;18.40;100.00;96814.75;5002580;28;20069;-81
2021/06/21 04:19:57;;;;;;;25.88;8.93;;;;;;;18.39;100.00;96813.94;5014180;28;20156;-81
2021/06/21 04:22:23;;;;;;;23.10;8.82;;;;;;;18.38;100.00;96817.84;4992967;28;20038;-82
2021/06/21 04:24:50;;;;;;;23.40;9.02;;;;;;;18.41;100.00;96814.34;5008703;28;20498;-74
2021/06/21 04:27:16;;;;;;;25.02;8.65;;;;;;;18.39;100.00;96815.91;4996959;28;20101;-75
2021/06/21 04:29:43;;;;;;;17.20;8.57;;;;;;;18.45;100.00;96828.84;5009570;28;20050;-76
2021/06/21 04:32:10;;;;;;;26.73;8.98;;;;;;;18.43;100.00;96836.66;5008208;28;20042;-76
2021/06/21 04:34:36;;;;;;;28.42;9.07;;;;;;;18.37;100.00;96849.19;5002194;28;20072;-75
2021/06/21 04:37:04;;;;;;;26.17;9.15;;;;;;;18.38;100.00;96844.47;5009989;28;20042;-76
2021/06/21 04:39:31;;;;;;;24.10;9.82;;;;;;;18.45;100.00;96839.03;5010085;28;20041;-75
2021/06/21 04:41:58;;;;;;;25.35;9.65;;;;;;;18.48;100.00;96844.53;5011867;28;20048;-74
2021/06/21 04:44:24;;;;;;;23.67;9.50;;;;;;;18.45;100.00;96839.03;5010515;28;20068;-75
2021/06/21 04:46:51;;;;;;;30.55;9.85;;;;;;;18.46;100.00;96841.38;5010723;28;20046;-73
2021/06/21 04:49:17;;;;;;;19.58;9.45;;;;;;;18.45;100.00;96845.28;5010352;28;20045;-75
2021/06/21 04:51:45;;;;;;;27.55;10.95;;;;;;;18.45;100.00;96848.00;5010184;28;20046;-76
2021/06/21 04:54:14;;;;;;;28.63;11.07;;;;;;;18.49;100.00;96850.81;5010299;28;20519;-76
2021/06/21 04:56:40;;;;;;;25.73;10.93;;;;;;;18.51;100.00;96854.75;5010228;28;20041;-76
2021/06/21 04:59:07;;;;;;;24.85;11.90;;;;;;;18.63;100.00;96859.13;5009867;28;20065;-74
2021/06/21 05:01:34;;;;;;;24.63;11.70;;;;;;;18.77;100.00;96861.09;5010113;28;20045;-76
2021/06/21 05:04:01;;;;;;;30.50;11.40;;;;;;;18.83;100.00;96859.56;5009389;28;20460;-79
2021/06/21 05:06:28;;;;;;;24.58;11.07;;;;;;;18.92;100.00;96876.41;5011648;28;20474;-79
2021/06/21 05:08:55;;;;;;;24.77;11.27;;;;;;;19.10;100.00;96885.50;5011539;28;20053;-79
2021/06/21 05:11:22;;;;;;;24.60;10.88;;;;;;;19.18;100.00;96878.84;5004294;28;20045;-79
2021/06/21 05:13:49;;;;;;;24.38;11.32;;;;;;;19.17;100.00;96875.34;5004082;28;20042;-79
2021/06/21 05:16:16;;;;;;;26.02;11.20;;;;;;;19.23;100.00;96878.47;5010120;28;20050;-78
2021/06/21 05:18:43;;;;;;;19.48;10.18;;;;;;;19.36;100.00;96876.91;5012106;28;20453;-79
2021/06/21 05:21:09;;;;;;;25.27;11.77;;;;;;;19.42;100.00;96880.88;5009887;28;20506;-79
2021/06/21 05:23:36;;;;;;;20.50;11.43;;;;;;;19.62;100.00;96884.81;5011409;28;20046;-79
2021/06/21 05:26:04;;;;;;;22.00;10.52;;;;;;;19.79;100.00;96889.56;5003623;28;20056;-77
2021/06/21 05:28:30;;;;;;;21.38;10.43;;;;;;;19.90;100.00;96873.81;5006517;28;20444;-79
2021/06/21 05:30:57;;;;;;;20.02;9.70;;;;;;;19.95;100.00;96880.13;5006613;28;20049;-80
2021/06/21 05:33:24;;;;;;;22.70;9.73;;;;;;;20.14;100.00;96880.47;5007317;28;20041;-77
2021/06/21 05:35:50;;;;;;;19.88;8.70;;;;;;;20.24;100.00;96876.16;5010527;28;20505;-79
2021/06/21 05:38:17;;;;;;;24.38;9.15;;;;;;;20.38;100.00;96876.94;5007441;28;20505;-79
2021/06/21 05:40:44;;;;;;;25.45;8.57;;;;;;;20.46;100.00;96870.22;5008413;28;20056;-80
2021/06/21 05:43:10;;;;;;;21.50;7.13;;;;;;;20.62;100.00;96866.25;5006875;28;20049;-78
2021/06/21 05:45:37;;;;;;;17.85;7.15;;;;;;;20.80;100.00;96862.22;5010936;28;20046;-79
2021/06/21 05:48:05;;;;;;;17.60;6.07;;;;;;;20.89;100.00;96845.28;5011841;28;20264;-80
2021/06/21 05:50:31;;;;;;;19.55;5.97;;;;;;;21.10;100.00;96848.75;5010260;28;20072;-78
2021/06/21 05:52:58;;;;;;;16.23;4.75;;;;;;;21.24;100.00;96847.09;5011827;28;20088;-80
2021/06/21 05:55:25;;;;;;;14.15;4.07;;;;;;;21.41;100.00;96838.69;5011566;28;20481;-81
2021/06/21 05:57:53;;;;;;;12.95;3.38;;;;;;;21.44;100.00;96842.59;5008616;28;20116;-79
2021/06/21 06:00:22;;;;;;;13.07;3.67;;;;;;;21.47;100.00;96850.81;5006407;28;20073;-81
2021/06/21 06:02:49;;;;;;;9.82;3.33;;;;;;;21.49;100.00;96862.25;5013156;28;20456;-79
2021/06/21 06:05:16;;;;;;;13.63;3.42;;;;;;;21.57;100.00;96854.72;5014343;28;20046;-78
2021/06/21 06:07:44;;;;;;;16.15;3.72;;;;;;;21.74;100.00;96865.59;5014064;28;20165;-78
2021/06/21 06:10:12;;;;;;;11.43;3.30;;;;;;;21.82;100.00;96858.03;5011884;28;20053;-81
2021/06/21 06:12:39;;;;;;;15.93;3.13;;;;;;;21.89;100.00;96858.00;5013500;28;20089;-79
2021/06/21 06:15:06;;;;;;;9.95;3.00;;;;;;;21.89;100.00;96858.00;5014164;28;20088;-81
2021/06/21 06:17:32;;;;;;;10.48;3.30;;;;;;;21.98;100.00;96868.56;5013774;28;20317;-79
2021/06/21 06:19:59;;;;;;;12.98;3.03;;;;;;;22.00;100.00;96869.72;5012019;28;20061;-81
2021/06/21 06:22:26;;;;;;;12.52;3.13;;;;;;;22.00;100.00;96874.44;5014132;28;20046;-80
2021/06/21 06:24:52;;;;;;;10.27;2.80;;;;;;;22.07;100.00;96858.63;5013580;28;20041;-81
2021/06/21 06:27:19;;;;;;;17.52;3.20;;;;;;;22.08;100.00;96864.91;5013196;28;20042;-80
2021/06/21 06:29:46;;;;;;;14.02;2.88;;;;;;;22.08;100.00;96862.94;5014104;28;20045;-82
2021/06/21 06:32:12;;;;;;;13.13;3.00;;;;;;;22.11;100.00;96859.38;5013645;28;20054;-81
2021/06/21 06:34:39;;;;;;;10.05;2.67;;;;;;;22.16;100.00;96869.19;5013203;28;20077;-79
2021/06/21 06:37:06;;;;;;;14.00;3.03;;;;;;;22.15;100.00;96862.09;5015018;28;20050;-79
2021/06/21 06:39:33;;;;;;;12.90;2.65;;;;;;;22.23;100.00;96872.63;5014328;28;20590;-82
2021/06/21 06:42:00;;;;;;;8.43;2.72;;;;;;;22.31;100.00;96876.09;5013352;28;20189;-80
2021/06/21 06:44:28;;;;;;;12.60;2.42;;;;;;;22.34;100.00;96887.13;5014236;28;20042;-80
2021/06/21 06:46:54;;;;;;;10.00;2.47;;;;;;;22.34;100.00;96887.13;4998318;28;20046;-81
2021/06/21 06:49:21;;;;;;;18.45;2.70;;;;;;;22.35;100.00;96880.38;5015682;28;20050;-83
2021/06/21 06:51:51;;;;;;;11.85;2.72;;;;;;;22.40;100.00;96883.91;5014585;28;20045;-81
2021/06/21 06:56:58;;;;;;;10.57;2.80;;;;;;;22.29;100.00;96892.28;5014069;28;20045;-80
2021/06/21 06:59:32;;;;;;;10.23;2.97;;;;;;;22.43;100.00;96892.13;5013511;28;20521;-81
2021/06/21 07:02:01;;;;;;;12.48;2.75;;;;;;;22.46;100.00;96907.06;5012626;28;20521;-78
2021/06/21 07:04:30;;;;;;;12.05;2.83;;;;;;;22.45;100.00;96903.56;5012553;28;20053;-79
2021/06/21 07:07:00;;;;;;;11.30;3.33;;;;;;;22.49;100.00;96898.78;5013582;28;20049;-78
2021/06/21 07:09:33;;;;;;;12.43;2.33;;;;;;;22.57;100.00;96902.22;5011919;28;20057;-81
2021/06/21 07:12:00;;;;;;;13.50;3.25;;;;;;;22.77;100.00;96917.00;5000240;28;20096;-76
2021/06/21 07:14:27;;;;;;;13.48;2.70;;;;;;;22.54;100.00;96903.84;4994562;28;20643;-74
2021/06/21 07:16:54;;;;;;;9.90;2.70;;;;;;;22.51;100.00;96914.91;5012489;28;20088;-73
2021/06/21 07:19:21;;;;;;;13.20;2.67;;;;;;;22.40;100.00;96922.53;5003635;28;20130;-76
2021/06/21 07:21:48;;;;;;;10.45;2.75;;;;;;;22.35;100.00;96918.22;5002856;28;20050;-75
2021/06/21 07:24:16;;;;;;;13.63;3.25;;;;;;;22.27;100.00;96908.47;5009783;28;20042;-75
2021/06/21 07:26:44;;;;;;;14.20;3.00;;;;;;;22.06;100.00;96908.66;5012255;28;20077;-74
2021/06/21 07:29:11;;;;;;;13.80;3.15;;;;;;;22.20;100.00;96931.34;5012222;28;20653;-78
2021/06/21 07:31:38;;;;;;;9.82;2.85;;;;;;;22.19;100.00;96937.28;5012841;28;20050;-75
2021/06/21 07:34:05;;;;;;;13.50;2.97;;;;;;;22.18;100.00;96941.22;5012946;28;20046;-75
2021/06/21 07:36:32;;;;;;;13.57;2.65;;;;;;;22.05;100.00;96929.13;5010932;28;20041;-74
2021/06/21 07:38:59;;;;;;;12.73;2.88;;;;;;;22.02;100.00;96933.50;5012945;28;20112;-76
2021/06/21 07:41:26;;;;;;;7.30;2.80;;;;;;;22.03;100.00;96924.03;5008158;28;20184;-77
2021/06/21 07:43:52;;;;;;;7.85;2.55;;;;;;;22.02;100.00;96932.69;5012325;28;20049;-75
2021/06/21 07:46:20;;;;;;;10.57;2.60;;;;;;;22.03;100.00;96926.78;5014752;28;20045;-77
2021/06/21 07:48:49;;;;;;;8.95;2.60;;;;;;;22.15;100.00;96936.53;5014572;28;20049;-76
2021/06/21 07:51:16;;;;;;;9.95;2.92;;;;;;;22.35;100.00;96945.78;4986918;28;20060;-78
2021/06/21 07:53:45;;;;;;;17.50;2.95;;;;;;;22.44;100.00;96940.59;5012923;28;20046;-77
2021/06/21 07:56:15;;;;;;;9.40;2.42;;;;;;;22.72;100.00;96939.53;5016155;28;20046;-76
2021/06/21 07:58:42;;;;;;;11.02;2.53;;;;;;;22.66;100.00;96925.41;5014992;28;20065;-77
2021/06/21 08:01:13;;;;;;;11.05;2.72;;;;;;;22.60;100.00;96929.78;5016472;28;20049;-78
2021/06/21 08:03:41;;;;;;;11.98;3.05;;;;;;;22.80;100.00;96930.00;5015620;28;20053;-75
2021/06/21 08:06:11;;;;;;;11.15;2.78;;;;;;;22.95;100.00;96936.91;5010355;28;20453;-76
2021/06/21 08:08:42;;;;;;;13.13;2.90;;;;;;;22.92;100.00;96948.78;5000086;28;20053;-77
2021/06/21 08:11:11;;;;;;;16.52;2.95;;;;;;;22.97;100.00;96937.28;5011168;28;20049;-77
2021/06/21 08:13:39;;;;;;;13.77;2.97;;;;;;;23.17;100.00;96943.75;5017081;28;20042;-77
2021/06/21 08:16:06;;;;;;;15.57;3.08;;;;;;;23.36;100.00;96951.41;5017257;28;20041;-78
2021/06/21 08:18:32;;;;;;;13.05;3.00;;;;;;;23.35;100.00;96944.31;5018056;28;20052;-77
2021/06/21 08:21:00;;;;;;;13.32;2.95;;;;;;;23.43;100.00;96951.31;5016781;28;20134;-78
2021/06/21 08:23:28;;;;;;;14.77;2.80;;;;;;;23.49;100.00;96957.94;5015228;28;20413;-78
2021/06/21 08:25:54;;;;;;;13.95;2.80;;;;;;;23.63;100.00;96950.66;5020845;28;20325;-76
2021/06/21 08:28:21;;;;;;;13.05;3.00;;;;;;;23.72;100.00;96940.63;5023579;28;20046;-78
2021/06/21 08:30:48;;;;;;;15.82;3.25;;;;;;;23.90;100.00;96937.63;5022557;28;20284;-78
2021/06/21 08:33:17;;;;;;;10.25;3.03;;;;;;;24.09;100.00;96936.94;5023365;28;20042;-76
2021/06/21 08:35:44;;;;;;;12.50;3.08;;;;;;;24.10;100.00;96947.59;5015923;28;20043;-76
2021/06/21 08:38:10;;;;;;;15.43;3.65;;;;;;;23.88;100.00;96940.78;5012945;28;20205;-76
2021/06/21 08:40:38;;;;;;;10.20;3.10;;;;;;;24.14;100.00;96964.88;5026552;28;20060;-77
2021/06/21 08:43:05;;;;;;;13.63;3.50;;;;;;;24.47;100.00;96942.97;5027372;28;20054;-78
2021/06/21 08:45:34;;;;;;;15.27;3.72;;;;;;;24.56;100.00;96949.53;5026943;28;20042;-76
2021/06/21 08:48:01;;;;;;;11.05;3.22;;;;;;;24.42;100.00;96946.22;5020489;28;20044;-76
2021/06/21 08:50:28;;;;;;;16.05;3.65;;;;;;;24.30;100.00;96949.63;5016846;28;20125;-78
2021/06/21 08:52:56;;;;;;;14.02;3.33;;;;;;;24.48;100.00;96950.88;5019240;28;20046;-78
2021/06/21 08:55:22;;;;;;;12.60;3.58;;;;;;;24.53;100.00;96935.75;5018345;28;20056;-78
2021/06/21 08:57:49;;;;;;;12.90;3.40;;;;;;;24.41;100.00;96944.69;5018726;28;20056;-80
2021/06/21 09:00:18;;;;;;;16.23;3.92;;;;;;;24.42;100.00;96949.00;5018994;28;20049;-79
2021/06/21 09:02:47;;;;;;;15.43;4.05;;;;;;;24.63;100.00;96943.88;5015317;28;20052;-78
2021/06/21 09:05:14;;;;;;;15.70;4.13;;;;;;;24.87;100.00;96930.78;4998655;28;20134;-80
2021/06/21 09:07:44;;;;;;;17.35;3.28;;;;;;;24.94;100.00;96947.25;4998225;28;20048;-77
2021/06/21 09:10:22;;;;;;;15.73;3.60;;;;;;;25.08;100.00;96946.22;4999508;28;20038;-79
2021/06/21 09:13:02;;;;;;;16.65;3.67;;;;;;;25.08;100.00;96944.22;5006786;28;20049;-77
2021/06/21 09:15:35;;;;;;;16.58;3.50;;;;;;;25.28;100.00;96958.06;5006056;28;20034;-79
2021/06/21 09:18:25;;;;;;;12.18;3.90;;;;;;;25.27;100.00;96956.47;5006616;28;20081;-78
2021/06/21 09:21:25;;;;;;;17.95;3.88;;;;;;;25.79;100.00;96948.25;5031432;23;20512;-76
2021/06/21 09:24:24;;;;;;;18.13;3.55;;;;;;;25.79;100.00;96964.88;5011475;28;20046;-75
2021/06/21 09:26:54;;;;;;;20.60;3.83;;;;;;;25.30;100.00;96969.50;4995126;28;20108;-75
2021/06/21 09:29:41;;;;;;;14.15;3.70;;;;;;;24.86;100.00;96962.44;4994108;28;20046;-75
2021/06/21 09:33:01;;;;;;;17.38;3.40;;;;;;;24.54;100.00;96970.56;4993930;28;20050;-82
2021/06/21 09:35:34;;;;;;;12.10;3.88;;;;;;;24.12;100.00;96983.91;4994835;28;20125;-83
2021/06/21 09:38:15;;;;;;;15.32;3.72;;;;;;;24.99;100.00;96962.59;4986946;28;20056;-84
2021/06/21 09:40:48;;;;;;;14.63;3.78;;;;;;;25.89;100.00;96961.88;4985389;28;20054;-82
2021/06/21 09:43:35;;;;;;;13.23;3.38;;;;;;;26.56;100.00;96962.22;4989658;28;20047;-84
2021/06/21 09:46:11;;;;;;;16.00;4.22;;;;;;;27.02;100.00;96970.13;5001287;28;20105;-83
2021/06/21 09:48:53;;;;;;;15.77;3.30;;;;;;;27.45;100.00;96966.97;5001054;28;20073;-85
2021/06/21 09:51:26;;;;;;;19.05;4.13;;;;;;;27.63;100.00;96972.78;4994420;28;20570;-83
2021/06/21 09:54:13;;;;;;;15.95;3.72;;;;;;;28.32;100.00;96965.44;4994294;28;20046;-84
2021/06/21 09:56:46;;;;;;;14.27;3.22;;;;;;;29.03;100.00;96972.16;4976812;28;20042;-83
2021/06/21 09:59:27;;;;;;;15.90;3.38;;;;;;;28.93;100.00;96967.72;4993394;28;20054;-82
2021/06/21 10:02:14;;;;;;;18.83;3.97;;;;;;;28.66;100.00;96977.84;4992283;28;20046;-83
2021/06/21 10:04:45;;;;;;;20.48;3.88;;;;;;;29.44;100.00;96961.94;4987776;28;20043;-82
2021/06/21 10:07:43;;;;;;;14.63;3.53;;;;;;;27.97;100.00;96974.13;4993334;28;20054;-82
2021/06/21 10:10:46;;;;;;;18.35;4.18;;;;;;;26.88;100.00;96951.09;4977999;28;20046;-83
2021/06/21 10:13:16;;;;;;;17.42;3.65;;;;;;;27.02;100.00;96967.34;4971702;28;20055;-83
2021/06/21 10:15:43;;;;;;;12.98;3.47;;;;;;;27.20;100.00;96970.41;4989728;28;20043;-84
2021/06/21 10:18:12;;;;;;;16.27;3.50;;;;;;;28.02;100.00;96982.72;4956832;28;20487;-83
2021/06/21 10:20:40;;;;;;;21.98;3.35;;;;;;;28.94;100.00;96971.28;4982768;28;20046;-83
2021/06/21 10:23:11;;;;;;;15.07;3.05;;;;;;;29.00;100.00;96967.50;4980987;28;20553;-84
2021/06/21 10:25:44;;;;;;;16.65;3.55;;;;;;;29.65;100.00;96959.09;4992527;28;20077;-84
2021/06/21 10:28:17;;;;;;;18.15;3.53;;;;;;;30.33;98.15;96971.19;4975836;28;20545;-83
2021/06/21 10:30:49;;;;;;;14.25;3.20;;;;;;;31.74;72.46;96967.84;4965219;28;20057;-84
2021/06/21 10:33:16;;;;;;;15.10;3.20;;;;;;;32.63;66.02;96958.72;4980173;28;20122;-84
2021/06/21 10:35:56;;;;;;;23.25;3.60;;;;;;;32.33;54.16;96966.22;4993071;28;20046;-84
2021/06/21 10:38:23;;;;;;;19.30;3.08;;;;;;;31.91;56.25;96971.81;4952046;28;20058;-83
2021/06/21 10:40:55;;;;;;;12.30;3.22;;;;;;;32.08;53.84;96958.25;4954681;28;20125;-86
2021/06/21 10:43:40;;;;;;;11.63;2.63;;;;;;;31.97;52.74;96969.94;4973924;28;20042;-84
2021/06/21 10:46:25;;;;;;;15.57;3.10;;;;;;;32.03;57.36;96959.66;4974645;28;20421;-84
2021/06/21 10:49:06;;;;;;;14.20;3.10;;;;;;;31.72;57.79;96961.91;4989176;28;20514;-84
2021/06/21 10:51:34;;;;;;;19.05;3.03;;;;;;;32.61;59.04;96966.84;4970168;28;20077;-85
2021/06/21 10:54:06;;;;;;;13.73;2.97;;;;;;;32.98;53.51;96964.56;4959772;28;20042;-84
2021/06/21 10:56:52;;;;;;;11.75;2.60;;;;;;;33.46;50.91;96959.63;4993093;28;20556;-84
2021/06/21 10:59:25;;;;;;;15.13;3.03;;;;;;;32.10;50.40;96960.56;4991550;28;20050;-83
2021/06/21 11:02:00;;;;;;;11.32;2.40;;;;;;;31.71;51.69;96954.00;4992056;28;20038;-85
2021/06/21 11:04:31;;;;;;;13.20;3.00;;;;;;;31.82;54.42;96957.84;4990728;28;20053;-85
2021/06/21 11:07:21;;;;;;;11.55;2.60;;;;;;;32.68;50.11;96958.06;4965130;28;20054;-81
2021/06/21 11:09:58;;;;;;;14.35;2.97;;;;;;;31.64;50.76;96952.31;4956772;28;20062;-84
2021/06/21 11:12:31;;;;;;;11.95;2.65;;;;;;;32.89;47.70;96954.19;4992686;28;20070;-84
2021/06/21 11:15:05;;;;;;;11.27;2.78;;;;;;;33.97;51.34;96945.19;4975718;28;20046;-83
2021/06/21 11:17:53;;;;;;;13.60;2.78;;;;;;;34.22;44.94;96934.13;4977845;28;20043;-84
2021/06/21 11:20:35;;;;;;;12.65;2.92;;;;;;;32.47;48.50;96933.88;4990246;28;20034;-83
2021/06/21 11:23:36;;;;;;;9.18;2.53;;;;;;;31.26;49.41;96933.25;4975854;28;20498;-83
2021/06/21 11:26:06;;;;;;;9.73;2.80;;;;;;;31.60;50.27;96940.50;4972420;28;20089;-83
2021/06/21 11:28:45;;;;;;;8.80;2.10;;;;;;;32.88;45.63;96940.66;4975564;28;20108;-84
2021/06/21 11:31:18;;;;;;;9.50;2.33;;;;;;;31.68;47.03;96947.31;4980209;28;20046;-82
2021/06/21 11:33:58;;;;;;;14.52;2.20;;;;;;;30.96;48.62;96933.44;4980398;28;20042;-84
2021/06/21 11:36:44;;;;;;;10.18;2.40;;;;;;;31.41;45.79;96938.97;4967130;28;20498;-84